Port Saint Joe, Florida
Current Conditions -  °F | °C
As of 7:53 AM on Wednesday 26 Nov 2014 (Local Time) from KAAF Reporting Station
Clear Clear  
Wind Chill: 50°   Ceiling: Unl
Heat Index: 50°   Visibility: 10mi
Dew Point: 40°   Wind: 14mph
Humidity: 68%   Direction: 330°NNW
Pressure: 30.17"   Gusts: NA
Location:  29.81°N, 85.3°W
Report Text: KAAF 261353Z AUTO 33012KT 10SM CLR 10/04 A3017 RMK AO2 SLP217 T01000044 TSNO
Loading
Personal Weather Stations






























Interactive Weather Map New forecast layout! Learn more

10-Day Weather Forecast

Advertisements
Track Severe Weather on mobile